Tiempo atmosférico en la estación meteorológica de Lubia, Soria (1100 m.)



Fecha
DESCASC
Temp. máxima en grados centígrados (hora)
DESCASC
Temp. mínima en grados centígrados (hora)
DESCASC
Temp. media en grados centígrados
DESCASC
Racha de viento máxima en m/sg (hora)
DESCASC
Velocidad máxima media en intervalos de 10 minutos(hora)
DESCASC
Precipitaciones diarias en mm
DESCASC
Precipitaciones de 00:00 a 06:00 en mm
DESCASC
Precipitaciones de 06:00 a 12:00 en mm
DESCASC
Precipitaciones de 12:00 a 18:00 en mm
DESCASC
Precipitaciones de 18:00 a 24:00 en mm
DESCASC
08-12-2019 8.4 (11:20) 0.8 (07:50) 4.6 11.67 (14:10) 7.22 (14:10) 3.2 0 0 3 0.2
07-12-2019 12.9 (16:10) -2 (07:40) 5.4 5 (18:00) 3.61 (14:40) 0 0 0 0 0
06-12-2019 12.5 (15:30) -1.2 (04:30) 5.6 3.89 (11:30) 2.22 (08:40) 0 0 0 0 0
05-12-2019 9.5 (14:00) 1.6 (00:00) 5.6 7.78 (14:00) 5 (14:00) 0 0 0 0 0
04-12-2019 9.6 (13:10) 0.3 (00:00) 5 7.5 (15:00) 4.44 (14:10) 0.4 0.4 0 0 0
03-12-2019 5 (13:40) -5 (-00:0) 0 8.06 (10:40) 5.56 (10:40) 0 0 0 0 0
02-12-2019 7 (12:20) -1.2 (-00:0) 2.9 14.17 (11:10) 7.78 (11:10) 0 0 0 0 0
01-12-2019 9.2 (16:10) 0.3 (00:00) 4.7 6.11 (04:30) 4.17 (00:10) 0 0 0 0 0
30-11-2019 11 (11:50) 2.5 (00:00) 6.8 13.61 (19:10) 8.61 (19:00) 7.6 1.4 0.4 3.2 2.6
29-11-2019 13 (15:40) 7.2 (00:00) 10.1 12.78 (00:40) 7.22 (00:50) 0.8 0.6 0 0.2 0
28-11-2019 10.8 (14:10) 6.2 (02:00) 8.5 13.61 (00:50) 7.78 (12:20) 1.6 0.4 0.2 0 1
27-11-2019 -- (--) -- (--) -- -- (--) -- (--) -- -- -- -- 0
26-11-2019 -- (--) -- (--) -- -- (--) -- (--) -- 0 0 0 --
25-11-2019 11.2 (13:20) 3.8 (00:30) 7.5 11.94 (14:00) 7.22 (10:10) 3.6 3.4 0 0.2 0
24-11-2019 6.4 (15:40) 1.3 (00:00) 3.9 13.61 (02:10) 8.89 (06:00) 0.2 0 0 0 0.2
23-11-2019 7.7 (15:10) 1.8 (00:00) 4.7 18.89 (08:20) 11.67 (08:30) 2.2 1.2 1 0 0
22-11-2019 8.4 (18:30) 1.3 (00:00) 4.8 16.94 (13:00) 8.06 (14:00) 8.8 0 4.4 1.4 3
21-11-2019 7.2 (15:00) 1 (00:00) 4.1 10.28 (15:40) 5.83 (15:40) 5.8 0 1 2.6 2.2
20-11-2019 8.7 (14:30) -1.6 (07:10) 3.5 8.33 (17:40) 4.72 (17:40) 2.6 0 0 0 2.6
19-11-2019 7.7 (15:10) -4.3 (-00:0) 1.7 9.17 (11:40) 6.11 (11:40) 0 0 0 0 0
18-11-2019 7.3 (13:10) -3.3 (-00:0) 2 9.17 (00:50) 6.39 (00:50) 0 0 0 0 0
17-11-2019 5.1 (15:30) -1.1 (-00:0) 2 10.56 (06:10) 6.67 (06:20) 4.4 0 0 4.4 0
16-11-2019 3.8 (15:00) -2.7 (-00:0) 0.5 9.72 (15:50) 6.39 (10:40) 0 0 0 0 0
15-11-2019 4.9 (15:40) -1.1 (-00:0) 1.9 14.44 (12:10) 9.17 (12:20) 1.8 0 0.4 0.2 1.2
14-11-2019 6.7 (00:40) -0.6 (-00:0) 3 16.39 (12:50) 10.28 (12:50) 8.4 1 4 1.6 1.8
13-11-2019 12.8 (14:50) 4.1 (00:00) 8.5 13.61 (23:20) 8.33 (23:20) 8.2 8 0.2 0 0
12-11-2019 7.7 (13:30) -0.3 (00:00) 3.7 12.78 (14:30) 8.89 (14:30) 0.8 0 0 0 0.8
11-11-2019 8.8 (15:20) -0.1 (00:00) 4.4 12.78 (15:00) 7.78 (14:40) 0 0 0 0 0
10-11-2019 6.3 (16:10) -1 (-00:0) 2.7 12.22 (10:40) 7.22 (10:40) 0.4 0.2 0 0.2 0

Gráficas

Temp. máximas Temp. mínimas Temp. medias Precipitaciones Rachas de viento máximas Velocidades máximas media en intervalos de 10 minutos

Datos horarios

Fecha y hora oficial Temperatura (ºC) Velocidad del viento (km/h) Dirección del viento Racha (km/h) Dirección de racha Precipitación (mm) Presión (hPa) Tendencia (hPa) Humedad (%)
2019-12-09 23:00:00 0.9 13 Oeste 18 Oeste 0 -- -- 94
2019-12-09 22:00:00 0.9 9 Oeste 18 Noroeste 0 -- -- 94
2019-12-09 21:00:00 3 7 Noroeste 19 Oeste 0 -- -- 82
2019-12-09 20:00:00 2.8 11 Sudoeste 27 Noroeste 0 -- -- 90
2019-12-09 19:00:00 3.9 15 Oeste 31 Noroeste 0 -- -- 88
2019-12-09 18:00:00 5 20 Oeste 32 Oeste 0 -- -- 84
2019-12-09 17:00:00 7.5 20 Oeste 33 Oeste 0 -- -- 72
2019-12-09 16:00:00 7.6 19 Oeste 35 Oeste 0 -- -- 72
2019-12-09 15:00:00 9 22 Oeste 39 Oeste 0 -- -- 67
2019-12-09 14:00:00 7.5 25 Oeste 40 Oeste 0 -- -- 71
2019-12-09 13:00:00 8.4 17 Noroeste 35 Oeste 0 -- -- 66
2019-12-09 12:00:00 6.3 23 Oeste 40 Noroeste 0 -- -- 74
2019-12-09 11:00:00 4.7 30 Oeste 44 Oeste 0 -- -- 82
2019-12-09 10:00:00 3.2 24 Noroeste 41 Oeste 0 -- -- 94
2019-12-09 09:00:00 2.7 26 Oeste 55 Oeste 0 -- -- 100
2019-12-09 08:00:00 2.3 27 Oeste 43 Oeste 0 -- -- 100
2019-12-09 07:00:00 2.8 30 Oeste 46 Oeste 0 -- -- 99
2019-12-09 06:00:00 3.1 29 Oeste 48 Oeste 0 -- -- 100
2019-12-09 05:00:00 3.1 25 Oeste 40 Oeste 0 -- -- 100
2019-12-09 04:00:00 3.5 24 Oeste 37 Oeste 0 -- -- 100
2019-12-09 03:00:00 4.3 23 Oeste 39 Oeste 0 -- -- 100
2019-12-09 02:00:00 5 22 Oeste 40 Oeste 0 -- -- 100
2019-12-09 01:00:00 5.1 19 Oeste 31 Oeste 0 -- -- 100
2019-12-09 00:00:00 5.1 14 Oeste 29 Oeste 0 -- -- 100
2019-12-08 23:00:00 5.4 11 Oeste 28 Oeste 0 -- -- 100
2019-12-08 22:00:00 5.6 18 Oeste 30 Oeste 0 -- -- 100
2019-12-08 21:00:00 5.7 16 Oeste 34 Oeste 0 -- -- 100
2019-12-08 20:00:00 5.7 23 Oeste 38 Oeste 0 -- -- 100
2019-12-08 19:00:00 5.7 24 Oeste 35 Noroeste 0.2 -- -- 100
2019-12-08 18:00:00 5.5 21 Oeste 32 Oeste 0.4 -- -- 100
2019-12-08 17:00:00 5.5 21 Oeste 41 Oeste 0.8 -- -- 100
2019-12-08 16:00:00 5.6 22 Oeste 40 Oeste 1.4 -- -- 100
2019-12-08 15:00:00 5.8 26 Oeste 42 Oeste 0.2 -- -- 100
2019-12-08 14:00:00 5.9 24 Oeste 38 Oeste 0.2 -- -- 100
2019-12-08 13:00:00 7.5 14 Oeste 31 Oeste 0 -- -- 86
2019-12-08 12:00:00 6.2 19 Oeste 39 Oeste 0 -- -- 93
2019-12-08 11:00:00 7.9 22 Oeste 36 Oeste 0 -- -- 84
2019-12-08 10:00:00 4.6 15 Oeste 26 Oeste 0 -- -- 95
2019-12-08 09:00:00 3.6 10 Oeste 20 Oeste 0 -- -- 100
2019-12-08 08:00:00 1.3 11 Oeste 17 Oeste 0 -- -- 100
2019-12-08 07:00:00 2.9 12 Oeste 23 Oeste 0 -- -- 100
2019-12-08 06:00:00 3.2 12 Oeste 21 Oeste 0 -- -- 100
2019-12-08 05:00:00 2.8 13 Oeste 19 Oeste 0 -- -- 100
2019-12-08 04:00:00 2.7 9 Oeste 13 Oeste 0 -- -- 100
2019-12-08 03:00:00 2.8 7 Oeste 11 Oeste 0 -- -- 100
2019-12-08 02:00:00 4 10 Oeste 18 Oeste 0 -- -- 100
2019-12-08 01:00:00 3.8 12 Oeste 17 Oeste 0 -- -- 100
2019-12-08 00:00:00 3.4 11 Oeste 14 Oeste 0 -- -- 100
2019-12-07 23:00:00 1.5 4 Oeste 12 Noroeste 0 -- -- 100
2019-12-07 22:00:00 2.6 0 Calma 9 Oeste 0 -- -- 100
2019-12-07 21:00:00 2.1 3 Sur 11 Noroeste 0 -- -- 100
2019-12-07 20:00:00 5.1 9 Noroeste 18 Oeste 0 -- -- 90
2019-12-07 19:00:00 5.7 9 Oeste 18 Oeste 0 -- -- 86
2019-12-07 18:00:00 6.6 12 Oeste 18 Oeste 0 -- -- 82
2019-12-07 17:00:00 10.1 8 Oeste 15 Oeste 0 -- -- 70
2019-12-07 16:00:00 12.8 7 Noroeste 17 Oeste 0 -- -- 64
2019-12-07 15:00:00 11.5 10 Oeste 18 Oeste 0 -- -- 61
2019-12-07 14:00:00 11.9 12 Oeste 17 Oeste 0 -- -- 60
2019-12-07 13:00:00 11.8 9 Oeste 14 Oeste 0 -- -- 65
2019-12-07 12:00:00 9.1 8 Oeste 14 Oeste 0 -- -- 90
2019-12-07 11:00:00 4.3 4 Sudoeste 8 Sudoeste 0 -- -- 100
2019-12-07 10:00:00 1.9 4 Sur 6 Sur 0 -- -- 100
2019-12-07 09:00:00 -0.3 6 Oeste 8 Noroeste 0 -- -- 100
2019-12-07 08:00:00 -1.1 4 Oeste 8 Noroeste 0 -- -- 100
2019-12-07 07:00:00 -1.4 8 Oeste 9 Oeste 0 -- -- 100
2019-12-07 06:00:00 -1.2 4 Norte 12 Oeste 0 -- -- 100
2019-12-07 05:00:00 -1 5 Oeste 7 Sudeste 0 -- -- 100
2019-12-07 04:00:00 -0.3 3 Noroeste 7 Noroeste 0 -- -- 100
2019-12-07 03:00:00 0.4 5 Sudoeste 10 Sur 0 -- -- 100
2019-12-07 02:00:00 -0.3 4 Norte 6 Noroeste 0 -- -- 100
2019-12-07 01:00:00 1.9 2 Sudoeste 7 Sur 0 -- -- 100
2019-12-07 00:00:00 2 0 Calma 5 Noroeste 0 -- -- 100
2019-12-06 23:00:00 2 0 Calma 5 Norte 0 -- -- 100
2019-12-06 22:00:00 2.2 0 Calma 5 Sudeste 0 -- -- 100
2019-12-06 21:00:00 2.7 0 Calma 4 Noroeste 0 -- -- 100
2019-12-06 20:00:00 2.4 2 Norte 5 Sudeste 0 -- -- 100
2019-12-06 19:00:00 3.9 4 Sudeste 7 Este 0 -- -- 100
2019-12-06 18:00:00 4.9 3 Este 5 Sudeste 0 -- -- 87
2019-12-06 17:00:00 11 2 Nordeste 8 Noroeste 0 -- -- 66
2019-12-06 16:00:00 12.2 3 Norte 6 Norte 0 -- -- 62
2019-12-06 15:00:00 10 2 Noroeste 10 Sur 0 -- -- 70
2019-12-06 14:00:00 8.9 5 Norte 10 Noroeste 0 -- -- 74
2019-12-06 13:00:00 8.6 2 Norte 10 Sudeste 0 -- -- 79
2019-12-06 12:00:00 5.9 6 Este 14 Sudeste 0 -- -- 90
2019-12-06 11:00:00 4.7 2 Nordeste 5 Noroeste 0 -- -- 100
2019-12-06 10:00:00 3.5 2 Este 9 Nordeste 0 -- -- 100
2019-12-06 09:00:00 2 6 Este 10 Este 0 -- -- 100
2019-12-06 08:00:00 0.1 4 Nordeste 6 Este 0 -- -- 100
2019-12-06 07:00:00 0 3 Norte 5 Norte 0 -- -- 100
2019-12-06 06:00:00 0.1 0 Calma 8 Noroeste 0 -- -- 100
2019-12-06 05:00:00 -1 4 Norte 6 Norte 0 -- -- 100
2019-12-06 04:00:00 0.1 3 Este 6 Este 0 -- -- 100
2019-12-06 03:00:00 0.5 0 Calma 7 Sudeste 0 -- -- 100
2019-12-06 02:00:00 0.4 0 Calma 8 Sur 0 -- -- 98
2019-12-06 01:00:00 2.7 5 Este 9 Este 0 -- -- 93
2019-12-06 00:00:00 2.4 3 Nordeste 7 Norte 0 -- -- 93
2019-12-05 23:00:00 2.6 4 Norte 5 Nordeste 0 -- -- 98
2019-12-05 22:00:00 2.2 0 Calma 11 Nordeste 0 -- -- 92
2019-12-05 21:00:00 2.7 3 Nordeste 9 Nordeste 0 -- -- 94
2019-12-05 20:00:00 3.6 6 Nordeste 11 Nordeste 0 -- -- 91
2019-12-05 19:00:00 3.9 4 Norte 14 Este 0 -- -- 89
2019-12-05 18:00:00 5.5 9 Nordeste 18 Nordeste 0 -- -- 83
2019-12-05 17:00:00 7.7 8 Nordeste 18 Nordeste 0 -- -- 77
2019-12-05 16:00:00 8.3 11 Nordeste 18 Norte 0 -- -- 74
2019-12-05 15:00:00 8.6 10 Nordeste 22 Nordeste 0 -- -- 73
2019-12-05 14:00:00 9.5 18 Este 28 Este 0 -- -- 69
2019-12-05 13:00:00 8 12 Nordeste 21 Nordeste 0 -- -- 76
2019-12-05 12:00:00 6.6 10 Nordeste 25 Nordeste 0 -- -- 80
2019-12-05 11:00:00 6.9 8 Norte 24 Nordeste 0 -- -- 80
2019-12-05 10:00:00 5.7 13 Nordeste 18 Nordeste 0 -- -- 81
2019-12-05 09:00:00 3.5 4 Este 14 Nordeste 0 -- -- 89
2019-12-05 08:00:00 3.7 4 Este 20 Nordeste 0 -- -- 88
2019-12-05 07:00:00 4.4 8 Norte 26 Norte 0 -- -- 84
2019-12-05 06:00:00 4.2 8 Nordeste 20 Nordeste 0 -- -- 84
2019-12-05 05:00:00 4.4 10 Nordeste 21 Norte 0 -- -- 83
2019-12-05 04:00:00 4.3 8 Norte 16 Norte 0 -- -- 83
2019-12-05 03:00:00 4.2 10 Norte 18 Norte 0 -- -- 83
2019-12-05 02:00:00 3.7 6 Este 16 Nordeste 0 -- -- 84
2019-12-05 01:00:00 3.6 9 Nordeste 22 Nordeste 0 -- -- 85
2019-12-05 00:00:00 3.7 14 Este 24 Este 0 -- -- 88
2019-12-04 23:00:00 4.7 10 Nordeste 21 Nordeste 0 -- -- 77
2019-12-04 22:00:00 5 14 Nordeste 26 Nordeste 0 -- -- 78
2019-12-04 21:00:00 5 7 Norte 14 Nordeste 0 -- -- 80
2019-12-04 20:00:00 5.7 5 Norte 21 Noroeste 0 -- -- 79
2019-12-04 19:00:00 6.3 10 Nordeste 17 Nordeste 0 -- -- 81
2019-12-04 18:00:00 6.2 9 Nordeste 24 Nordeste 0 -- -- 82
2019-12-04 17:00:00 7.5 14 Este 21 Nordeste 0 -- -- 79
2019-12-04 16:00:00 8.3 12 Nordeste 23 Nordeste 0 -- -- 73
2019-12-04 15:00:00 8.8 14 Nordeste 27 Nordeste 0 -- -- 72
2019-12-04 14:00:00 9.2 12 Nordeste 21 Nordeste 0 -- -- 71
2019-12-04 13:00:00 9 12 Nordeste 22 Nordeste 0 -- -- 73
2019-12-04 12:00:00 8 12 Nordeste 24 Nordeste 0 -- -- 78
2019-12-04 11:00:00 7.2 7 Nordeste 14 Nordeste 0 -- -- 83
2019-12-04 10:00:00 4.3 4 Norte 14 Nordeste 0 -- -- 94
2019-12-04 09:00:00 4.1 6 Nordeste 14 Nordeste 0 -- -- 95
2019-12-04 08:00:00 4 8 Nordeste 13 Nordeste 0 -- -- 94
2019-12-04 07:00:00 3 4 Nordeste 7 Nordeste 0 -- -- 100
2019-12-04 06:00:00 2.9 5 Norte 9 Este 0 -- -- 100
2019-12-04 05:00:00 2 5 Nordeste 9 Norte 0 -- -- 100
2019-12-04 04:00:00 2.4 6 Nordeste 10 Nordeste 0 -- -- 99
2019-12-04 03:00:00 1.3 3 Norte 6 Norte 0.4 -- -- 95
2019-12-04 02:00:00 1.5 5 Nordeste 10 Nordeste 0 -- -- 89
2019-12-04 01:00:00 1.2 8 Nordeste 13 Este 0 -- -- 91
2019-12-04 00:00:00 0.3 5 Este 14 Este 0 -- -- 97
2019-12-03 23:00:00 -0.3 9 Este 15 Este 0 -- -- 98
2019-12-03 22:00:00 0.3 9 Este 14 Este 0 -- -- 97
2019-12-03 21:00:00 0.6 11 Este 17 Este 0 -- -- 95
2019-12-03 20:00:00 0.8 8 Este 14 Este 0 -- -- 92
2019-12-03 19:00:00 1.7 9 Este 15 Este 0 -- -- 89
2019-12-03 18:00:00 2 10 Este 19 Este 0 -- -- 87
2019-12-03 17:00:00 3.1 13 Este 20 Este 0 -- -- 80
2019-12-03 16:00:00 2.6 12 Sudeste 21 Sudeste 0 -- -- 82
2019-12-03 15:00:00 3.2 15 Sudeste 23 Este 0 -- -- 80
2019-12-03 14:00:00 3.6 15 Este 28 Este 0 -- -- 75
2019-12-03 13:00:00 3.9 15 Este 24 Este 0 -- -- 73
2019-12-03 12:00:00 2.9 14 Este 27 Este 0 -- -- 76
2019-12-03 11:00:00 1.9 17 Este 29 Este 0 -- -- 81
2019-12-03 10:00:00 0.8 13 Este 19 Este 0 -- -- 86
2019-12-03 09:00:00 -1.4 6 Este 12 Este 0 -- -- 93
2019-12-03 08:00:00 -3.4 8 Este 12 Nordeste 0 -- -- 100
2019-12-03 07:00:00 -4.6 3 Norte 6 Norte 0 -- -- 100
2019-12-03 06:00:00 -3.5 5 Nordeste 12 Nordeste 0 -- -- 100
2019-12-03 05:00:00 -2.6 9 Este 15 Este 0 -- -- 100
2019-12-03 04:00:00 -2.8 4 Este 13 Este 0 -- -- 99
2019-12-03 03:00:00 -2.8 7 Nordeste 13 Nordeste 0 -- -- 100
2019-12-03 02:00:00 -2.4 7 Este 14 Nordeste 0 -- -- 98
2019-12-03 01:00:00 -2 5 Nordeste 14 Este 0 -- -- 96
2019-12-03 00:00:00 -1.1 9 Este 17 Este 0 -- -- 93
2019-12-02 23:00:00 -0.9 7 Este 18 Nordeste 0 -- -- 92
2019-12-02 22:00:00 0.4 12 Nordeste 21 Nordeste 0 -- -- 88
2019-12-02 21:00:00 0.8 13 Nordeste 23 Nordeste 0 -- -- 88
2019-12-02 20:00:00 1.5 12 Nordeste 25 Nordeste 0 -- -- 87
2019-12-02 19:00:00 2.4 14 Nordeste 35 Norte 0 -- -- 86
2019-12-02 18:00:00 3.4 15 Nordeste 35 Nordeste 0 -- -- 80
2019-12-02 17:00:00 5.3 21 Nordeste 35 Nordeste 0 -- -- 71
2019-12-02 16:00:00 6.1 22 Nordeste 40 Nordeste 0 -- -- 69
2019-12-02 15:00:00 6.7 22 Nordeste 39 Nordeste 0 -- -- 66
2019-12-02 14:00:00 5.9 19 Nordeste 40 Nordeste 0 -- -- 73
2019-12-02 13:00:00 6.2 21 Nordeste 41 Nordeste 0 -- -- 69
2019-12-02 12:00:00 5.7 24 Nordeste 51 Nordeste 0 -- -- 70
2019-12-02 11:00:00 5.7 27 Nordeste 46 Norte 0 -- -- 72
2019-12-02 10:00:00 5 17 Norte 33 Nordeste 0 -- -- 75
2019-12-02 09:00:00 3.1 10 Nordeste 25 Nordeste 0 -- -- 85
2019-12-02 08:00:00 2.4 11 Nordeste 28 Norte 0 -- -- 89
2019-12-02 07:00:00 2.5 12 Nordeste 30 Nordeste 0 -- -- 91
2019-12-02 06:00:00 2.3 12 Nordeste 28 Norte 0 -- -- 90
2019-12-02 05:00:00 2.8 13 Nordeste 32 Norte 0 -- -- 87
2019-12-02 04:00:00 3.7 18 Norte 35 Norte 0 -- -- 83
2019-12-02 03:00:00 3.6 12 Nordeste 22 Nordeste 0 -- -- 88
2019-12-02 02:00:00 2.9 9 Nordeste 18 Nordeste 0 -- -- 93
2019-12-02 01:00:00 1.3 6 Norte 12 Norte 0 -- -- 97
2019-12-02 00:00:00 1.7 6 Norte 13 Norte 0 -- -- 98
2019-12-01 23:00:00 1.6 8 Nordeste 12 Nordeste 0 -- -- 100
2019-12-01 22:00:00 1.4 4 Nordeste 11 Este 0 -- -- 99
2019-12-01 21:00:00 2.1 4 Nordeste 8 Nordeste 0 -- -- 97
2019-12-01 20:00:00 3.6 6 Nordeste 14 Nordeste 0 -- -- 91
2019-12-01 19:00:00 3 5 Este 13 Nordeste 0 -- -- 95
2019-12-01 18:00:00 3.1 6 Este 8 Sur 0 -- -- 91
2019-12-01 17:00:00 6.7 6 Sur 13 Sudeste 0 -- -- 74
2019-12-01 16:00:00 8.6 7 Sur 14 Este 0 -- -- 69
2019-12-01 15:00:00 7.5 5 Sudeste 13 Sur 0 -- -- 71
2019-12-01 14:00:00 7.3 5 Este 11 Sudoeste 0 -- -- 71
2019-12-01 13:00:00 5.9 6 Sudoeste 15 Sudoeste 0 -- -- 82
2019-12-01 12:00:00 6 12 Sudoeste 17 Oeste 0 -- -- 84
2019-12-01 11:00:00 7.5 4 Sudoeste 8 Sudoeste 0 -- -- 94
2019-12-01 10:00:00 4.9 2 Noroeste 7 Sur 0 -- -- 100
2019-12-01 09:00:00 1.4 4 Sudoeste 18 Sudoeste 0 -- -- 100
2019-12-01 08:00:00 0.6 11 Sur 19 Sur 0 -- -- 100
2019-12-01 07:00:00 0.7 11 Sudoeste 16 Sudoeste 0 -- -- 100
2019-12-01 06:00:00 1.5 4 Sudoeste 10 Oeste 0 -- -- 100
2019-12-01 05:00:00 3 8 Oeste 22 Oeste 0 -- -- 100
2019-12-01 04:00:00 2.5 10 Oeste 15 Oeste 0 -- -- 100
2019-12-01 03:00:00 3.3 11 Oeste 21 Oeste 0 -- -- 100
2019-12-01 02:00:00 2.3 6 Oeste 16 Oeste 0 -- -- 100
2019-12-01 01:00:00 2.5 9 Noroeste 21 Oeste 0 -- -- 100
2019-12-01 00:00:00 2.5 15 Oeste 22 Oeste 0 -- -- 100
2019-11-30 23:00:00 3.2 13 Sudoeste 31 Oeste 0.2 -- -- 100
2019-11-30 22:00:00 4 18 Sudoeste 32 Oeste 0.2 -- -- 95
2019-11-30 21:00:00 4.8 20 Oeste 35 Sudoeste 0.2 -- -- 100
2019-11-30 20:00:00 4.6 16 Oeste 49 Oeste 0.6 -- -- 98
2019-11-30 19:00:00 7 31 Oeste 47 Oeste 1.4 -- -- 100
2019-11-30 18:00:00 7.8 21 Oeste 47 Sudoeste 3 -- -- 100
2019-11-30 17:00:00 9.1 19 Sudoeste 41 Sudoeste 0.2 -- -- 100
2019-11-30 16:00:00 9.1 19 Sudoeste 41 Sur 0 -- -- 100
2019-11-30 15:00:00 9.8 21 Sudoeste 46 Sudoeste 0 -- -- 97
2019-11-30 14:00:00 10.5 24 Sudoeste 40 Sur 0 -- -- 93
2019-11-30 13:00:00 10.7 17 Sur 32 Sudoeste 0 -- -- 96
2019-11-30 12:00:00 11 17 Sudoeste 27 Sur 0 -- -- 93
2019-11-30 11:00:00 10 9 Sur 24 Sur 0 -- -- 100
2019-11-30 10:00:00 9 9 Sur 15 Sur 0 -- -- 100
2019-11-30 09:00:00 8.6 8 Sudoeste 16 Sudoeste 0.2 -- -- 100
2019-11-30 08:00:00 8.4 11 Sudoeste 18 Sudoeste 0 -- -- 100
2019-11-30 07:00:00 8.6 10 Sur 17 Sur 0.2 -- -- 100
2019-11-30 06:00:00 8.5 9 Sur 20 Sur 0.6 -- -- 100
2019-11-30 05:00:00 7.9 7 Sudoeste 19 Oeste 0.8 -- -- 100
2019-11-30 04:00:00 7.1 5 Sudoeste 14 Sudoeste 0 -- -- 100
2019-11-30 03:00:00 6.9 5 Sudoeste 11 Sudoeste 0 -- -- 100
2019-11-30 02:00:00 7.2 8 Sudoeste 12 Sudoeste 0 -- -- 100
2019-11-30 01:00:00 7.6 8 Sudoeste 15 Oeste 0 -- -- 100
2019-11-30 00:00:00 8.1 11 Sudoeste 17 Oeste 0 -- -- 100
2019-11-29 23:00:00 8.1 9 Oeste 16 Sudoeste 0 -- -- 100
2019-11-29 22:00:00 7.6 12 Sudoeste 19 Sudoeste 0 -- -- 100
2019-11-29 21:00:00 7.3 10 Sudoeste 15 Sudoeste 0 -- -- 100
2019-11-29 20:00:00 7.3 9 Sudoeste 16 Oeste 0 -- -- 100
2019-11-29 19:00:00 7.8 10 Sudoeste 14 Sudoeste 0 -- -- 100
2019-11-29 18:00:00 8.3 6 Oeste 15 Oeste 0 -- -- 92
2019-11-29 17:00:00 10.2 10 Oeste 21 Oeste 0 -- -- 84
2019-11-29 16:00:00 11.4 12 Oeste 25 Oeste 0 -- -- 82
2019-11-29 15:00:00 10.7 13 Oeste 26 Oeste 0.2 -- -- 90
2019-11-29 14:00:00 10.5 13 Oeste 21 Oeste 0 -- -- 95
2019-11-29 13:00:00 10.4 13 Oeste 21 Oeste 0 -- -- 94
2019-11-29 12:00:00 10.8 9 Oeste 21 Oeste 0 -- -- 96
2019-11-29 11:00:00 10.7 8 Oeste 15 Oeste 0 -- -- 97
2019-11-29 10:00:00 10.4 9 Noroeste 18 Noroeste 0 -- -- 100
2019-11-29 09:00:00 8.7 10 Oeste 23 Oeste 0 -- -- 100
2019-11-29 08:00:00 8.7 14 Oeste 21 Oeste 0 -- -- 100
2019-11-29 07:00:00 8.5 9 Oeste 30 Oeste 0 -- -- 100
2019-11-29 06:00:00 8.5 19 Oeste 32 Oeste 0.2 -- -- 100
2019-11-29 05:00:00 8.4 19 Oeste 37 Oeste 0 -- -- 100
2019-11-29 04:00:00 8.4 22 Oeste 36 Oeste 0 -- -- 100
2019-11-29 03:00:00 8.3 23 Oeste 39 Oeste 0.2 -- -- 100
2019-11-29 02:00:00 8.2 24 Oeste 38 Oeste 0 -- -- 100
2019-11-29 01:00:00 8 24 Oeste 46 Sudoeste 0.2 -- -- 100
2019-11-29 00:00:00 8 18 Oeste 32 Oeste 0.2 -- -- 100
2019-11-28 23:00:00 7.2 5 Sur 12 Sudoeste 0 -- -- 100
2019-11-28 22:00:00 7 7 Sudoeste 18 Sur 0 -- -- 100
2019-11-28 21:00:00 7 13 Sudoeste 26 Sudoeste 0 -- -- 100
2019-11-28 20:00:00 6.9 12 Sudoeste 22 Sudoeste 0.6 -- -- 100
2019-11-28 19:00:00 7 14 Sudoeste 35 Sudoeste 0.2 -- -- 96
2019-11-28 18:00:00 7.8 18 Sudoeste 32 Sudoeste 0 -- -- 88
2019-11-28 17:00:00 8.4 19 Sudoeste 33 Sudoeste 0 -- -- 86
2019-11-28 16:00:00 8.7 13 Sudoeste 31 Oeste 0 -- -- 86
2019-11-28 15:00:00 9.6 19 Oeste 35 Sudoeste 0 -- -- 81
2019-11-28 14:00:00 10.6 17 Sudoeste 44 Oeste 0 -- -- 76
2019-11-28 13:00:00 10.1 21 Oeste 44 Oeste 0 -- -- 80
2019-11-28 12:00:00 10.2 24 Oeste 39 Oeste 0 -- -- 83
2019-11-28 11:00:00 8.6 21 Oeste 39 Sudoeste 0.2 -- -- 90
2019-11-28 10:00:00 7.7 21 Oeste 39 Oeste 0 -- -- 95
2019-11-28 09:00:00 6.8 16 Sudoeste 31 Sudoeste 0 -- -- 98
2019-11-28 08:00:00 6.4 19 Oeste 41 Oeste 0 -- -- 99
2019-11-28 07:00:00 6.6 17 Oeste 32 Sudoeste 0 -- -- 98
2019-11-28 06:00:00 6.4 22 Oeste 37 Oeste 0 -- -- 99
2019-11-28 05:00:00 6.4 19 Oeste 41 Oeste 0 -- -- 100
2019-11-28 04:00:00 6.3 23 Oeste 44 Oeste 0 -- -- 100
2019-11-28 03:00:00 6.2 24 Oeste 44 Oeste 0 -- -- 100
2019-11-28 02:00:00 6.2 28 Oeste 44 Oeste 0.2 -- -- 100
2019-11-28 01:00:00 6.4 27 Oeste 49 Oeste 0.2 -- -- 99
2019-11-28 00:00:00 7 20 Oeste 38 Oeste 0 -- -- 90
2019-11-27 23:00:00 7.1 19 Oeste 37 Oeste 0 -- -- 87
2019-11-27 22:00:00 7.2 21 Oeste 37 Sudoeste 0 -- -- 84
2019-11-27 21:00:00 7 21 Oeste 40 Oeste 0 -- -- 84
2019-11-27 20:00:00 7.4 21 Oeste 40 Oeste 0 -- -- 83
2019-11-27 19:00:00 7.1 19 Sudoeste 41 Sudoeste 0 -- -- 88
2019-11-27 18:00:00 7.8 22 Oeste 41 Oeste 0 -- -- 80
2019-11-27 17:00:00 8.6 21 Oeste 37 Oeste 0 -- -- 70
2019-11-27 16:00:00 8.8 18 Oeste 45 Oeste 0 -- -- 72
2019-11-27 15:00:00 9.4 27 Oeste 44 Oeste 0 -- -- 70
2019-11-27 14:00:00 8.3 17 Oeste 44 Oeste 0 -- -- 77
2019-11-27 06:00:00 -- -- -- -- -- -- -- -- --
2019-11-27 05:00:00 -- -- -- -- -- -- -- -- --
2019-11-27 04:00:00 -- -- -- -- -- -- -- -- --
2019-11-27 03:00:00 -- -- -- -- -- -- -- -- --
2019-11-27 02:00:00 -- -- -- -- -- -- -- -- --
2019-11-27 01:00:00 -- -- -- -- -- -- -- -- --
2019-11-27 00:00:00 -- -- -- -- -- -- -- -- --
2019-11-26 23:00:00 -- -- -- -- -- -- -- -- --
2019-11-26 22:00:00 9.5 21 Sudoeste 37 Sudoeste 1.8 -- -- 100
2019-11-26 21:00:00 9.5 25 Sudoeste 52 Sudoeste 0.8 -- -- 100
2019-11-26 20:00:00 10.2 31 Sudoeste 55 Sudoeste 0 -- -- 91
2019-11-26 19:00:00 9.9 32 Sudoeste 57 Sudoeste 0 -- -- 92
2019-11-26 18:00:00 9.9 28 Sudoeste 50 Sur 0 -- -- 92
2019-11-26 17:00:00 9.8 22 Sudoeste 45 Sudoeste 0 -- -- 91
2019-11-26 16:00:00 9.9 25 Sudoeste 43 Sur 0 -- -- 90
2019-11-26 15:00:00 10.1 21 Sur 44 Sudoeste 0 -- -- 89
2019-11-26 14:00:00 10 20 Sudoeste 34 Sudoeste 0 -- -- 89
2019-11-26 13:00:00 9.7 16 Sur 33 Sur 0 -- -- 94
2019-11-26 12:00:00 8.9 16 Sudoeste 30 Sudoeste 0 -- -- 100
2019-11-26 11:00:00 8 13 Sudoeste 28 Sudoeste 0 -- -- 100
2019-11-26 10:00:00 7.2 16 Sudoeste 30 Sudoeste 0 -- -- 100
2019-11-26 09:00:00 6.9 17 Sudoeste 26 Sudoeste 0 -- -- 100
2019-11-26 08:00:00 5.5 13 Sudoeste 21 Sudoeste 0 -- -- 100
2019-11-26 07:00:00 5.4 8 Sudoeste 15 Sudoeste 0 -- -- 100
2019-11-26 06:00:00 5.9 8 Sudoeste 18 Oeste 0 -- -- 99
2019-11-26 05:00:00 7.4 11 Oeste 26 Sudoeste 0 -- -- 97
2019-11-26 04:00:00 7.4 17 Oeste 31 Oeste 0 -- -- 98
2019-11-26 03:00:00 7.3 17 Oeste 28 Oeste 0 -- -- 98
2019-11-26 02:00:00 7.2 16 Oeste 32 Oeste 0 -- -- 98
2019-11-26 01:00:00 7.5 14 Oeste 29 Oeste 0 -- -- 95
2019-11-26 00:00:00 7.5 9 Oeste 25 Oeste 0 -- -- 94
2019-11-25 23:00:00 7.6 6 Noroeste 22 Oeste 0 -- -- 93
2019-11-25 22:00:00 7.6 14 Oeste 35 Oeste 0 -- -- 92
2019-11-25 21:00:00 7.5 11 Oeste 24 Oeste 0 -- -- 91
2019-11-25 20:00:00 7.9 9 Noroeste 31 Oeste 0 -- -- 88
2019-11-25 19:00:00 8.4 19 Oeste 35 Oeste 0 -- -- 84
2019-11-25 18:00:00 9 16 Oeste 32 Oeste 0 -- -- 88
2019-11-25 17:00:00 9.5 15 Oeste 28 Oeste 0 -- -- 90
2019-11-25 16:00:00 10.6 16 Oeste 35 Oeste 0 -- -- 83
2019-11-25 15:00:00 10.5 20 Oeste 39 Oeste 0 -- -- 83
2019-11-25 14:00:00 9.4 22 Oeste 43 Oeste 0.2 -- -- 93
2019-11-25 13:00:00 10.8 21 Oeste 42 Oeste 0 -- -- 90
2019-11-25 12:00:00 8.8 20 Oeste 37 Oeste 0 -- -- 100
2019-11-25 11:00:00 8.8 14 Oeste 42 Oeste 0 -- -- 99
2019-11-25 10:00:00 8.4 22 Oeste 37 Oeste 0 -- -- 100
2019-11-25 09:00:00 7.9 23 Oeste 41 Oeste 0 -- -- 100
2019-11-25 08:00:00 7.7 17 Oeste 35 Oeste 0 -- -- 100
2019-11-25 07:00:00 7.6 20 Oeste 35 Oeste 0 -- -- 100
2019-11-25 06:00:00 7.6 25 Oeste 41 Oeste 0 -- -- 100
2019-11-25 05:00:00 6.5 14 Oeste 23 Oeste 0.2 -- -- 100
2019-11-25 04:00:00 5.1 9 Sudoeste 18 Sudoeste 0.4 -- -- 100
2019-11-25 03:00:00 4.6 10 Sudoeste 16 Sudoeste 0.6 -- -- 100
2019-11-25 02:00:00 4.1 8 Sur 17 Sur 1.8 -- -- 100
2019-11-25 01:00:00 3.9 8 Sudoeste 18 Sur 0.4 -- -- 100
2019-11-25 00:00:00 4 9 Sudoeste 18 Sudoeste 0.2 -- -- 100
2019-11-24 23:00:00 4.3 11 Sudoeste 26 Oeste 0 -- -- 100
2019-11-24 22:00:00 4.2 18 Oeste 37 Oeste 0 -- -- 100
2019-11-24 21:00:00 4.1 14 Oeste 31 Oeste 0 -- -- 94
2019-11-24 20:00:00 4.6 13 Oeste 25 Oeste 0 -- -- 87
2019-11-24 19:00:00 4.5 11 Oeste 18 Oeste 0 -- -- 85
2019-11-24 18:00:00 4.4 11 Oeste 27 Oeste 0 -- -- 81
2019-11-24 17:00:00 5.6 15 Oeste 30 Oeste 0 -- -- 74
2019-11-24 16:00:00 5.2 18 Oeste 36 Noroeste 0 -- -- 76
2019-11-24 15:00:00 4.7 21 Noroeste 39 Oeste 0 -- -- 78
2019-11-24 14:00:00 4.8 19 Noroeste 41 Oeste 0 -- -- 80
2019-11-24 13:00:00 3.8 26 Oeste 42 Oeste 0 -- -- 85
2019-11-24 12:00:00 3.1 28 Oeste 41 Oeste 0 -- -- 90
2019-11-24 11:00:00 2.9 23 Oeste 42 Oeste 0 -- -- 91
2019-11-24 10:00:00 2.3 30 Oeste 48 Oeste 0 -- -- 93
2019-11-24 09:00:00 2.1 26 Oeste 41 Oeste 0 -- -- 93
2019-11-24 08:00:00 1.5 19 Oeste 49 Oeste 0 -- -- 97
2019-11-24 07:00:00 1.3 23 Oeste 46 Oeste 0 -- -- 95
2019-11-24 06:00:00 1.8 32 Oeste 47 Oeste 0 -- -- 94
2019-11-24 05:00:00 1.9 25 Oeste 42 Oeste 0 -- -- 94
2019-11-24 04:00:00 2 20 Oeste 38 Oeste 0 -- -- 94
2019-11-24 03:00:00 2.3 21 Oeste 49 Oeste 0 -- -- 92
2019-11-24 02:00:00 2.6 31 Oeste 47 Oeste 0 -- -- 93
2019-11-24 01:00:00 2.7 30 Oeste 45 Oeste 0 -- -- 92
2019-11-24 00:00:00 3 26 Noroeste 43 Noroeste 0 -- -- 88
2019-11-23 23:00:00 2.8 26 Oeste 57 Oeste 0 -- -- 89
2019-11-23 22:00:00 3.7 36 Oeste 54 Oeste 0 -- -- 85
2019-11-23 21:00:00 4.3 27 Oeste 48 Oeste 0 -- -- 82
2019-11-23 20:00:00 4.5 24 Oeste 41 Oeste 0 -- -- 81
2019-11-23 19:00:00 4.6 23 Oeste 41 Oeste 0 -- -- 80
2019-11-23 18:00:00 4.8 18 Oeste 51 Oeste 0 -- -- 78
2019-11-23 17:00:00 5.7 26 Oeste 45 Noroeste 0 -- -- 73
2019-11-23 16:00:00 6.4 26 Oeste 57 Oeste 0 -- -- 70
2019-11-23 15:00:00 7.6 24 Oeste 57 Oeste 0 -- -- 66
2019-11-23 14:00:00 6.9 30 Oeste 53 Oeste 0 -- -- 73
2019-11-23 13:00:00 5.4 22 Oeste 51 Oeste 0 -- -- 76
2019-11-23 12:00:00 4.4 36 Oeste 57 Oeste 0 -- -- 80
2019-11-23 11:00:00 3.8 34 Oeste 55 Oeste 0 -- -- 86
2019-11-23 10:00:00 2.5 28 Noroeste 62 Oeste 0 -- -- 93
2019-11-23 09:00:00 2.3 33 Oeste 68 Oeste 0 -- -- 99
2019-11-23 08:00:00 2.5 40 Oeste 67 Noroeste 0.2 -- -- 99
2019-11-23 07:00:00 2.7 34 Oeste 61 Oeste 0.8 -- -- 100
2019-11-23 06:00:00 2.1 27 Oeste 55 Oeste 0.4 -- -- 100
2019-11-23 05:00:00 2.4 36 Oeste 63 Oeste 0.4 -- -- 99
2019-11-23 04:00:00 3.2 28 Oeste 62 Oeste 0 -- -- 99
2019-11-23 03:00:00 4.2 35 Oeste 55 Oeste 0 -- -- 93
2019-11-23 02:00:00 4.5 29 Oeste 52 Oeste 0 -- -- 93
2019-11-23 01:00:00 4.9 19 Oeste 50 Oeste 0.4 -- -- 98
2019-11-23 00:00:00 5.7 25 Oeste 44 Oeste 0.2 -- -- 92
2019-11-22 23:00:00 5.5 24 Sudoeste 42 Sudoeste 0 -- -- 90
2019-11-22 22:00:00 5.4 21 Sudoeste 46 Oeste 0 -- -- 99
2019-11-22 21:00:00 5.4 22 Oeste 49 Oeste 0 -- -- 98
2019-11-22 20:00:00 6.3 23 Oeste 39 Oeste 2.8 -- -- 100
2019-11-22 19:00:00 8.3 17 Sudoeste 33 Sur 0 -- -- 100
2019-11-22 18:00:00 8.3 22 Sur 39 Sur 0 -- -- 100
2019-11-22 17:00:00 8 20 Sur 40 Sudoeste 0 -- -- 100
2019-11-22 16:00:00 7.9 18 Sur 37 Sur 0.8 -- -- 100
2019-11-22 15:00:00 7.2 19 Sudoeste 44 Sudoeste 0.6 -- -- 100
2019-11-22 14:00:00 7.3 29 Sur 55 Sur 0 -- -- 99
2019-11-22 13:00:00 6.9 27 Sur 61 Sur 0 -- -- 99
2019-11-22 12:00:00 6.4 21 Sur 44 Sur 0.2 -- -- 100
2019-11-22 11:00:00 5.6 18 Sur 35 Sur 1.8 -- -- 100
2019-11-22 10:00:00 5.2 15 Sur 29 Sur 2 -- -- 100
2019-11-22 09:00:00 4.7 15 Sur 24 Sur 0.2 -- -- 100
2019-11-22 08:00:00 4.3 12 Sur 23 Sur 0 -- -- 100
2019-11-22 07:00:00 4 13 Sur 26 Sur 0.2 -- -- 100
2019-11-22 06:00:00 3.8 8 Sur 18 Sur 0 -- -- 100
2019-11-22 05:00:00 3.6 10 Sur 19 Sur 0 -- -- 100
2019-11-22 04:00:00 3.2 9 Sur 18 Sur 0 -- -- 100
2019-11-22 03:00:00 2.7 9 Sur 16 Sur 0 -- -- 100
2019-11-22 02:00:00 1.7 6 Sur 13 Sur 0 -- -- 100
2019-11-22 01:00:00 1.4 7 Sur 13 Sudoeste 0 -- -- 100
2019-11-22 00:00:00 1.4 6 Sur 12 Sur 0 -- -- 100
2019-11-21 23:00:00 1.7 7 Sur 12 Sur 0 -- -- 100
2019-11-21 22:00:00 2.4 5 Sudoeste 14 Sur 0.2 -- -- 100
2019-11-21 21:00:00 2.2 8 Sur 10 Sur 0 -- -- 100
2019-11-21 20:00:00 2.9 7 Sudoeste 12 Sudoeste 0 -- -- 100
2019-11-21 19:00:00 2.9 9 Sudoeste 27 Oeste 2 -- -- 100
2019-11-21 18:00:00 3.3 3 Noroeste 12 Sudoeste 0 -- -- 100
2019-11-21 17:00:00 4.5 11 Oeste 23 Oeste 0.2 -- -- 98
2019-11-21 16:00:00 5.9 13 Sudoeste 37 Oeste 1.2 -- -- 95
2019-11-21 15:00:00 7.2 8 Oeste 18 Oeste 0 -- -- 91
2019-11-21 14:00:00 6.5 10 Sudoeste 17 Sudoeste 0.4 -- -- 99
2019-11-21 13:00:00 4.1 8 Oeste 24 Sudoeste 0.8 -- -- 100
2019-11-21 12:00:00 3.8 12 Sudoeste 22 Oeste 0.8 -- -- 100
2019-11-21 11:00:00 4.2 12 Sudoeste 20 Sudoeste 0 -- -- 98
2019-11-21 10:00:00 2.4 8 Sudoeste 19 Sudoeste 0 -- -- 100
2019-11-21 09:00:00 1.7 12 Sudoeste 23 Sudoeste 0.2 -- -- 100
2019-11-21 08:00:00 -- -- -- -- -- -- -- -- --
2019-11-21 07:00:00 -- -- -- -- -- -- -- -- --
2019-11-21 06:00:00 -- -- -- -- -- -- -- -- --
2019-11-21 05:00:00 -- -- -- -- -- -- -- -- --
2019-11-21 04:00:00 -- -- -- -- -- -- -- -- --
2019-11-21 03:00:00 -- -- -- -- -- -- -- -- --
2019-11-21 02:00:00 -- -- -- -- -- -- -- -- --
2019-11-21 01:00:00 -- -- -- -- -- -- -- -- --
2019-11-21 00:00:00 -- -- -- -- -- -- -- -- --
2019-11-20 23:00:00 -- -- -- -- -- -- -- -- --
2019-11-20 22:00:00 -- -- -- -- -- -- -- -- --
2019-11-20 21:00:00 -- -- -- -- -- -- -- -- --
2019-11-20 20:00:00 -- -- -- -- -- -- -- -- --
2019-11-20 19:00:00 2.3 9 Sudoeste 27 Sudoeste 0.8 -- -- 99
2019-11-20 18:00:00 3.5 12 Sudoeste 30 Sudoeste 0 -- -- 87
2019-11-20 17:00:00 5.2 14 Sudoeste 28 Sudoeste 0 -- -- 75
2019-11-20 16:00:00 6.1 16 Sudoeste 26 Sudoeste 0 -- -- 74
2019-11-20 15:00:00 8.2 14 Sudoeste 21 Sudoeste 0 -- -- 63
2019-11-20 14:00:00 6.5 10 Sur 24 Sur 0 -- -- 72
2019-11-20 13:00:00 6.5 12 Sur 27 Sudoeste 0 -- -- 72
2019-11-20 12:00:00 4.5 13 Sudoeste 24 Sur 0 -- -- 81
2019-11-20 11:00:00 3.3 11 Sudoeste 24 Sur 0 -- -- 92
2019-11-20 10:00:00 1.6 10 Sur 14 Sur 0 -- -- 100
2019-11-20 09:00:00 -0.3 4 Sudeste 10 Sur 0 -- -- 100
2019-11-20 08:00:00 -1.3 6 Sur 10 Sudeste 0 -- -- 100
2019-11-20 07:00:00 -1.5 6 Sur 9 Sur 0 -- -- 100
2019-11-20 06:00:00 -0.5 8 Sudoeste 12 Sudoeste 0 -- -- 100
2019-11-20 05:00:00 -0.5 10 Sudoeste 14 Sudoeste 0 -- -- 100
2019-11-20 04:00:00 -0.4 10 Sudoeste 13 Sudoeste 0 -- -- 100
2019-11-20 03:00:00 -1.5 3 Sudoeste 9 Sur 0 -- -- 100
2019-11-20 02:00:00 -1 0 Calma 9 Sudoeste 0 -- -- 100
2019-11-20 01:00:00 0.5 8 Oeste 13 Sudoeste 0 -- -- 99
2019-11-20 00:00:00 0.4 8 Sudoeste 14 Sudoeste 0 -- -- 97
2019-11-19 23:00:00 0.7 10 Sudoeste 19 Sudoeste 0 -- -- 97
2019-11-19 22:00:00 0.1 12 Sudoeste 16 Sudoeste 0 -- -- 96
2019-11-19 21:00:00 1.5 10 Oeste 15 Oeste 0 -- -- 89
2019-11-19 20:00:00 1.4 6 Sudoeste 17 Noroeste 0 -- -- 87
2019-11-19 19:00:00 2.1 9 Oeste 17 Oeste 0 -- -- 85
2019-11-19 18:00:00 2.8 9 Oeste 23 Oeste 0 -- -- 80
2019-11-19 17:00:00 4.6 13 Oeste 27 Oeste 0 -- -- 73
2019-11-19 16:00:00 7 20 Oeste 31 Oeste 0 -- -- 59
2019-11-19 15:00:00 7.6 16 Oeste 33 Oeste 0 -- -- 62
2019-11-19 14:00:00 7.6 16 Oeste 33 Oeste 0 -- -- 64
2019-11-19 13:00:00 6.2 20 Oeste 33 Oeste 0 -- -- 68
2019-11-19 12:00:00 5.2 20 Oeste 33 Oeste 0 -- -- 74
2019-11-19 11:00:00 4.3 20 Oeste 30 Oeste 0 -- -- 78
2019-11-19 10:00:00 1.8 15 Noroeste 24 Oeste 0 -- -- 84
2019-11-19 09:00:00 -0.8 9 Noroeste 14 Oeste 0 -- -- 92
2019-11-19 08:00:00 -2.4 13 Oeste 25 Oeste 0 -- -- 100
2019-11-19 07:00:00 -1.9 14 Oeste 26 Oeste 0 -- -- 100
2019-11-19 06:00:00 -2.1 16 Oeste 22 Oeste 0 -- -- 100
2019-11-19 05:00:00 -3 10 Oeste 20 Oeste 0 -- -- 100
2019-11-19 04:00:00 -3.6 11 Sudoeste 14 Sudoeste 0 -- -- 100
2019-11-19 03:00:00 -4.1 3 Sudoeste 14 Noroeste 0 -- -- 100
2019-11-19 02:00:00 -3.1 8 Noroeste 14 Oeste 0 -- -- 100
2019-11-19 01:00:00 -2.1 11 Oeste 16 Oeste 0 -- -- 95
2019-11-19 00:00:00 -2.1 8 Oeste 12 Oeste 0 -- -- 93
2019-11-18 23:00:00 -2.5 3 Norte 15 Noroeste 0 -- -- 96
2019-11-18 22:00:00 -2.8 6 Oeste 8 Oeste 0 -- -- 100
2019-11-18 21:00:00 -2.1 2 Sur 13 Noroeste 0 -- -- 93
2019-11-18 20:00:00 -0.9 5 Noroeste 15 Norte 0 -- -- 88
2019-11-18 19:00:00 1.4 10 Nordeste 17 Norte 0 -- -- 79
2019-11-18 18:00:00 3.5 4 Norte 23 Noroeste 0 -- -- 75
2019-11-18 17:00:00 4.9 12 Noroeste 29 Noroeste 0 -- -- 65
2019-11-18 16:00:00 5.9 7 Noroeste 23 Norte 0 -- -- 62
2019-11-18 15:00:00 6.9 12 Norte 21 Noroeste 0 -- -- 59
2019-11-18 14:00:00 5.6 11 Noroeste 25 Norte 0 -- -- 61
2019-11-18 13:00:00 5.9 18 Norte 30 Noroeste 0 -- -- 65
2019-11-18 12:00:00 5.3 15 Oeste 31 Oeste 0 -- -- 77
2019-11-18 11:00:00 4.7 19 Oeste 29 Oeste 0 -- -- 81
2019-11-18 10:00:00 3.7 16 Oeste 31 Noroeste 0 -- -- 84
2019-11-18 09:00:00 2 12 Noroeste 22 Noroeste 0 -- -- 100
2019-11-18 08:00:00 -0.7 3 Oeste 15 Noroeste 0 -- -- 100
2019-11-18 07:00:00 -1 5 Sudoeste 15 Oeste 0 -- -- 100
2019-11-18 06:00:00 -0.6 3 Noroeste 17 Noroeste 0 -- -- 100
2019-11-18 05:00:00 -0.3 6 Oeste 19 Oeste 0 -- -- 100
2019-11-18 04:00:00 -0.1 7 Oeste 21 Oeste 0 -- -- 100
2019-11-18 03:00:00 0.2 9 Oeste 21 Oeste 0 -- -- 100
2019-11-18 02:00:00 0.4 15 Oeste 31 Oeste 0 -- -- 100
2019-11-18 01:00:00 0.7 22 Oeste 33 Oeste 0 -- -- 100
2019-11-18 00:00:00 1.8 17 Oeste 28 Sudoeste 0 -- -- 100
2019-11-17 23:00:00 3.3 10 Oeste 36 Oeste 0 -- -- 100
2019-11-17 22:00:00 3.8 14 Oeste 22 Oeste 0 -- -- 100
2019-11-17 21:00:00 3.7 12 Oeste 23 Oeste 0 -- -- 100
2019-11-17 20:00:00 4.4 12 Oeste 28 Oeste 0 -- -- 100
2019-11-17 19:00:00 4.7 14 Oeste 27 Oeste 0 -- -- 100
2019-11-17 18:00:00 4.9 11 Oeste 28 Noroeste 0.2 -- -- 100
2019-11-17 17:00:00 5 17 Oeste 33 Oeste 0.2 -- -- 100
2019-11-17 16:00:00 4.9 14 Oeste 26 Oeste 0.2 -- -- 100
2019-11-17 15:00:00 4.8 15 Oeste 26 Oeste 0.8 -- -- 100
2019-11-17 14:00:00 3.5 9 Sudoeste 21 Sudoeste 1.8 -- -- 100
2019-11-17 13:00:00 3.6 10 Sudoeste 20 Sudoeste 1.2 -- -- 100
2019-11-17 12:00:00 3 12 Oeste 37 Oeste 0 -- -- 100
2019-11-17 11:00:00 2.3 21 Oeste 35 Oeste 0 -- -- 100
2019-11-17 10:00:00 1.5 15 Oeste 28 Oeste 0 -- -- 100
2019-11-17 09:00:00 1 22 Oeste 32 Oeste 0 -- -- 100
2019-11-17 08:00:00 0.5 13 Oeste 28 Oeste 0 -- -- 100
2019-11-17 07:00:00 0 17 Oeste 38 Oeste 0 -- -- 100
2019-11-17 06:00:00 -0.3 23 Oeste 36 Oeste 0 -- -- 100
2019-11-17 05:00:00 -0.3 13 Oeste 29 Oeste 0 -- -- 100
2019-11-17 04:00:00 -0.4 17 Oeste 37 Oeste 0 -- -- 100
2019-11-17 03:00:00 -0.5 22 Oeste 34 Oeste 0 -- -- 100
2019-11-17 02:00:00 -0.9 18 Oeste 29 Oeste 0 -- -- 100
2019-11-17 01:00:00 -0.6 19 Oeste 29 Oeste 0 -- -- 95
2019-11-17 00:00:00 -0.5 16 Oeste 28 Oeste 0 -- -- 92
2019-11-16 23:00:00 0.3 12 Oeste 22 Oeste 0 -- -- 89
2019-11-16 22:00:00 1.2 14 Oeste 26 Oeste 0 -- -- 86
2019-11-16 21:00:00 2.1 19 Oeste 29 Oeste 0 -- -- 88
2019-11-16 20:00:00 2 16 Oeste 30 Oeste 0 -- -- 88
2019-11-16 19:00:00 2.4 19 Oeste 35 Oeste 0 -- -- 86
2019-11-16 18:00:00 2 17 Oeste 29 Oeste 0 -- -- 89
2019-11-16 17:00:00 2.7 16 Oeste 27 Oeste 0 -- -- 88
2019-11-16 16:00:00 2.3 18 Oeste 35 Oeste 0 -- -- 89
2019-11-16 15:00:00 3.8 14 Oeste 26 Oeste 0 -- -- 88
2019-11-16 14:00:00 1.3 19 Oeste 34 Oeste 0 -- -- 100
2019-11-16 13:00:00 -0.2 20 Oeste 33 Oeste 0 -- -- 100
2019-11-16 12:00:00 -0.6 18 Oeste 34 Oeste 0 -- -- 100
2019-11-16 11:00:00 -0.5 21 Oeste 33 Oeste 0 -- -- 100
2019-11-16 10:00:00 -0.5 16 Oeste 29 Oeste 0 -- -- 100
2019-11-16 09:00:00 -1.4 15 Oeste 25 Oeste 0 -- -- 100
2019-11-16 08:00:00 -2 10 Oeste 21 Oeste 0 -- -- 100
2019-11-16 07:00:00 -2 11 Oeste 20 Oeste 0 -- -- 100
2019-11-16 06:00:00 -2 9 Oeste 17 Oeste 0 -- -- 100
2019-11-16 05:00:00 -2.1 8 Oeste 14 Oeste 0 -- -- 100
2019-11-16 04:00:00 -2.2 8 Oeste 14 Oeste 0 -- -- 100
2019-11-16 03:00:00 -1.1 7 Oeste 12 Oeste 0 -- -- 100
2019-11-16 02:00:00 -1.5 6 Oeste 15 Oeste 0 -- -- 100
2019-11-16 01:00:00 -0.6 11 Oeste 18 Oeste 0 -- -- 100
2019-11-16 00:00:00 -0.1 12 Oeste 15 Oeste 0.6 -- -- 100
2019-11-15 23:00:00 0 5 Oeste 19 Noroeste 0.6 -- -- 100
2019-11-15 22:00:00 0.3 13 Noroeste 26 Oeste 0 -- -- 100
2019-11-15 21:00:00 0.4 13 Oeste 26 Oeste 0 -- -- 100
2019-11-15 20:00:00 0.2 13 Oeste 22 Oeste 0 -- -- 100
2019-11-15 19:00:00 0.6 12 Oeste 20 Oeste 0 -- -- 98
2019-11-15 18:00:00 1.3 14 Oeste 28 Oeste 0 -- -- 93
2019-11-15 17:00:00 2.3 16 Oeste 28 Oeste 0 -- -- 88
2019-11-15 16:00:00 3.8 22 Oeste 39 Oeste 0 -- -- 80
2019-11-15 15:00:00 3.3 23 Noroeste 40 Oeste 0 -- -- 85
2019-11-15 14:00:00 2.6 23 Oeste 43 Noroeste 0.2 -- -- 98
2019-11-15 13:00:00 1.6 24 Oeste 52 Oeste 0 -- -- 100
2019-11-15 12:00:00 1.6 24 Oeste 45 Oeste 0 -- -- 100
2019-11-15 11:00:00 0.9 26 Oeste 40 Oeste 0 -- -- 100
2019-11-15 10:00:00 0 24 Oeste 40 Oeste 0.4 -- -- 100
2019-11-15 09:00:00 -0.1 24 Oeste 44 Oeste 0 -- -- 100
2019-11-15 08:00:00 -0.2 21 Oeste 42 Oeste 0 -- -- 100
2019-11-15 07:00:00 -0.4 24 Oeste 39 Oeste 0 -- -- 100
2019-11-15 06:00:00 -0.5 20 Oeste 33 Oeste 0 -- -- 100
2019-11-15 05:00:00 -0.7 17 Oeste 34 Oeste 0 -- -- 100
2019-11-15 04:00:00 -0.7 16 Oeste 32 Oeste 0 -- -- 100
2019-11-15 03:00:00 -0.7 23 Oeste 33 Noroeste 0 -- -- 100
2019-11-15 02:00:00 -0.3 17 Oeste 30 Oeste 0 -- -- 100
2019-11-15 01:00:00 -0.4 21 Oeste 31 Oeste 0 -- -- 100
2019-11-15 00:00:00 -0.4 15 Oeste 26 Oeste 0 -- -- 100
2019-11-14 23:00:00 -0.5 14 Oeste 30 Oeste 0 -- -- 100
2019-11-14 22:00:00 -0.6 14 Oeste 28 Oeste 0 -- -- 100
2019-11-14 21:00:00 -0.4 17 Oeste 27 Oeste 0.2 -- -- 100
2019-11-14 20:00:00 -0.2 14 Oeste 23 Oeste 0.4 -- -- 100
2019-11-14 19:00:00 -0.1 10 Oeste 26 Sudoeste 1.2 -- -- 100
2019-11-14 18:00:00 0.6 12 Sudoeste 26 Sudoeste 0.2 -- -- 97
2019-11-14 17:00:00 0.7 15 Sudoeste -- -- 1.4 -- -- 97
2019-11-14 16:00:00 3.7 22 Oeste 40 Oeste 0 -- -- 67
2019-11-14 15:00:00 4 23 Oeste 54 Oeste 0 -- -- 66
2019-11-14 14:00:00 5.2 33 Oeste 59 Oeste 0 -- -- 61
2019-11-14 13:00:00 4.8 34 Oeste 59 Oeste 0 -- -- 67
2019-11-14 12:00:00 3.4 29 Oeste 48 Oeste 0 -- -- 75
2019-11-14 11:00:00 2 25 Oeste 39 Oeste 0.2 -- -- 100
2019-11-14 10:00:00 0.4 18 Oeste 36 Oeste 0.2 -- -- 100
2019-11-14 09:00:00 0.6 15 Oeste 23 Oeste 0.4 -- -- 100
2019-11-14 08:00:00 0.7 9 Oeste 39 Oeste 0.4 -- -- 100
2019-11-14 07:00:00 1.3 25 Oeste 48 Noroeste 2.8 -- -- 99
2019-11-14 06:00:00 3.9 30 Oeste 50 Sudoeste 1 -- -- 95
2019-11-14 05:00:00 5.1 25 Oeste 51 Oeste 0 -- -- 82
2019-11-14 04:00:00 5.3 28 Oeste 49 Sudoeste 0 -- -- 81
2019-11-14 03:00:00 5.4 28 Oeste 50 Oeste 0 -- -- 80
2019-11-14 02:00:00 5.5 28 Oeste 57 Oeste 0 -- -- 82
2019-11-14 01:00:00 6.6 28 Oeste 45 Oeste 0 -- -- 85
2019-11-14 00:00:00 6.5 22 Oeste 49 Oeste 0 -- -- 86
2019-11-13 23:00:00 6.8 25 Oeste 42 Oeste 0 -- -- 86
2019-11-13 22:00:00 5.7 18 Sudoeste 29 Sudoeste 0 -- -- 89
2019-11-13 21:00:00 5.4 11 Sudoeste 21 Sudoeste 0 -- -- 89
2019-11-13 20:00:00 5.1 12 Sudoeste 19 Sudoeste 0 -- -- 90
2019-11-13 19:00:00 6.3 11 Sudoeste 24 Oeste 0 -- -- 83
2019-11-13 18:00:00 6.7 13 Oeste 24 Oeste 0 -- -- 77
2019-11-13 17:00:00 8.2 14 Oeste 29 Oeste 0 -- -- 67
2019-11-13 16:00:00 10.1 16 Noroeste 36 Oeste 0 -- -- 59
2019-11-13 15:00:00 12.6 12 Noroeste 23 Noroeste 0 -- -- 47
2019-11-13 14:00:00 11.7 13 Noroeste 30 Noroeste 0 -- -- 52
2019-11-13 13:00:00 10.3 16 Norte 38 Norte 0 -- -- 56
2019-11-13 12:00:00 9.6 18 Norte 30 Norte 0 -- -- 62
2019-11-13 11:00:00 9.8 11 Noroeste 31 Noroeste 0 -- -- 68
2019-11-13 10:00:00 6 15 Noroeste 26 Noroeste 0 -- -- 88
2019-11-13 09:00:00 5.5 13 Norte 24 Norte 0 -- -- 100
2019-11-13 08:00:00 5.4 16 Norte 34 Norte 0 -- -- 100
2019-11-13 07:00:00 6.3 17 Noroeste 28 Noroeste 0.2 -- -- 100
2019-11-13 06:00:00 6.1 12 Oeste 18 Oeste 1.2 -- -- 100
2019-11-13 05:00:00 5.5 7 Sudoeste 15 Sudoeste 1.6 -- -- 100
2019-11-13 04:00:00 5.1 9 Sudoeste 19 Sudoeste 2 -- -- 100
2019-11-13 03:00:00 4.5 7 Sudoeste 12 Sudoeste 2.2 -- -- 100
2019-11-13 02:00:00 4.5 5 Sudoeste 12 Sudoeste 0.6 -- -- 100
2019-11-13 01:00:00 4.3 8 Sudoeste 13 Sudoeste 0.4 -- -- 100
2019-11-13 00:00:00 4.1 8 Sudoeste 15 Sudoeste 0.2 -- -- 100
2019-11-12 23:00:00 4 10 Sudoeste 22 Oeste 0.2 -- -- 100
2019-11-12 22:00:00 3.8 12 Oeste 27 Oeste 0.2 -- -- 100
2019-11-12 21:00:00 3.7 14 Oeste 31 Oeste 0.2 -- -- 96
2019-11-12 20:00:00 4.2 20 Oeste 35 Oeste 0 -- -- 90
2019-11-12 19:00:00 5 23 Oeste 38 Oeste 0 -- -- 81
2019-11-12 18:00:00 5.2 15 Oeste 24 Oeste 0 -- -- 81
2019-11-12 17:00:00 5.2 12 Oeste 30 Oeste 0 -- -- 81
2019-11-12 16:00:00 7 16 Oeste 39 Oeste 0 -- -- 74
2019-11-12 15:00:00 7.7 23 Oeste 46 Oeste 0 -- -- 68
2019-11-12 14:00:00 7.4 24 Oeste 36 Oeste 0 -- -- 68
2019-11-12 13:00:00 6.5 15 Oeste 34 Oeste 0 -- -- 75
2019-11-12 12:00:00 4.7 20 Oeste 33 Sudoeste 0 -- -- 85
2019-11-12 11:00:00 3.1 23 Oeste 38 Oeste 0 -- -- 90
2019-11-12 10:00:00 4 19 Oeste 36 Oeste 0 -- -- 86
2019-11-12 09:00:00 2.1 18 Oeste 29 Oeste 0 -- -- 94
2019-11-12 08:00:00 0.3 16 Oeste 26 Oeste 0 -- -- 100
2019-11-12 07:00:00 -0.1 10 Oeste 20 Noroeste 0 -- -- 100
2019-11-12 06:00:00 -0.1 8 Oeste 15 Oeste 0 -- -- 98
2019-11-12 05:00:00 0.6 10 Oeste 25 Oeste 0 -- -- 95
2019-11-12 04:00:00 0.3 13 Oeste 18 Oeste 0 -- -- 94
2019-11-12 03:00:00 1.1 8 Oeste 14 Oeste 0 -- -- 88
2019-11-12 02:00:00 1 9 Oeste 18 Oeste 0 -- -- 95
2019-11-12 01:00:00 0.2 10 Noroeste 14 Oeste 0 -- -- 100
2019-11-12 00:00:00 1.2 6 Norte 15 Noroeste 0 -- -- 97
2019-11-11 23:00:00 0.5 5 Oeste 10 Oeste 0 -- -- 98
2019-11-11 22:00:00 0.7 5 Sur 13 Norte 0 -- -- 94
2019-11-11 21:00:00 3.1 7 Norte 12 Noroeste 0 -- -- 87
2019-11-11 20:00:00 1.6 7 Oeste 10 Sudoeste 0 -- -- 86
2019-11-11 19:00:00 3 4 Sur 22 Noroeste 0 -- -- 81
2019-11-11 18:00:00 5.3 14 Noroeste 33 Noroeste 0 -- -- 70
2019-11-11 17:00:00 6.7 19 Noroeste 30 Noroeste 0 -- -- 75
2019-11-11 16:00:00 8.5 13 Noroeste 37 Oeste 0 -- -- 73
2019-11-11 15:00:00 7.6 28 Oeste 46 Oeste 0 -- -- 82
2019-11-11 14:00:00 6.4 21 Oeste 36 Oeste 0 -- -- 88
2019-11-11 13:00:00 5.3 21 Oeste 40 Oeste 0 -- -- 92
2019-11-11 12:00:00 4 20 Oeste 35 Oeste 0 -- -- 99
2019-11-11 11:00:00 3 14 Oeste 32 Noroeste 0 -- -- 99
2019-11-11 10:00:00 2.2 20 Oeste 36 Oeste 0 -- -- 100
2019-11-11 09:00:00 1.6 21 Oeste 34 Oeste 0 -- -- 100
2019-11-11 08:00:00 1.5 22 Oeste 35 Oeste 0 -- -- 98
2019-11-11 07:00:00 1.5 12 Oeste 28 Oeste 0 -- -- 99
2019-11-11 06:00:00 1.6 15 Oeste 35 Oeste 0 -- -- 100
2019-11-11 05:00:00 1.3 21 Oeste 38 Oeste 0 -- -- 100
2019-11-11 04:00:00 1.1 25 Oeste 38 Oeste 0 -- -- 100
2019-11-11 03:00:00 0.5 19 Oeste 31 Noroeste 0 -- -- 100
2019-11-11 02:00:00 0.3 14 Oeste 34 Oeste 0 -- -- 100
2019-11-11 01:00:00 0.3 20 Oeste 32 Oeste 0 -- -- 100
2019-11-11 00:00:00 -0.1 16 Noroeste 24 Oeste 0 -- -- 100
2019-11-10 23:00:00 -0.7 11 Oeste 25 Oeste 0 -- -- 100
2019-11-10 22:00:00 -0.4 15 Oeste 23 Oeste 0 -- -- 99
2019-11-10 21:00:00 0.3 12 Oeste 19 Oeste 0 -- -- 97
2019-11-10 20:00:00 -0.4 10 Oeste 15 Oeste 0 -- -- 95
2019-11-10 19:00:00 1.3 6 Norte 24 Noroeste 0 -- -- 83
2019-11-10 18:00:00 2.7 12 Noroeste 30 Noroeste 0 -- -- 77
2019-11-10 17:00:00 3.9 19 Noroeste 32 Noroeste 0 -- -- 72
2019-11-10 16:00:00 5.5 14 Noroeste 34 Noroeste 0 -- -- 76
2019-11-10 15:00:00 3.4 16 Noroeste 38 Oeste 0.2 -- -- 85
2019-11-10 14:00:00 3 18 Noroeste 36 Oeste 0 -- -- 95
2019-11-10 13:00:00 2.5 23 Oeste 41 Oeste 0 -- -- 93
2019-11-10 12:00:00 1.8 26 Oeste 41 Oeste 0 -- -- 97
2019-11-10 11:00:00 0.8 22 Oeste 44 Oeste 0 -- -- 100
2019-11-10 10:00:00 0.1 22 Oeste 37 Oeste 0 -- -- 100
2019-11-10 09:00:00 0.2 23 Oeste 33 Oeste 0 -- -- 100
2019-11-10 08:00:00 -0.7 18 Sudoeste 27 Sudoeste 0 -- -- 100
2019-11-10 07:00:00 -0.7 13 Sudoeste 28 Oeste 0 -- -- 100
2019-11-10 06:00:00 -0.3 18 Oeste 31 Oeste 0 -- -- 100
2019-11-10 05:00:00 -0.1 11 Oeste 24 Oeste 0 -- -- 98
2019-11-10 04:00:00 0.2 17 Oeste 27 Oeste 0 -- -- 99
2019-11-10 03:00:00 0.7 16 Oeste 24 Oeste 0 -- -- 100
2019-11-10 02:00:00 0.3 8 Oeste 13 Oeste 0 -- -- 100
2019-11-10 01:00:00 0.6 6 Noroeste 17 Noroeste 0.2 -- -- 100
2019-11-10 00:00:00 1.1 15 Noroeste 57 Oeste 2.4 -- -- 100